sensor_id;sensor_type;location;lat;lon;timestamp;P1;durP1;ratioP1;P2;durP2;ratioP2
73337;SDS011;61575;49.908;35.556;2023-03-14T00:00:33;6.85;;;3.20;;
73337;SDS011;61575;49.908;35.556;2023-03-14T00:03:35;8.13;;;3.00;;
73337;SDS011;61575;49.908;35.556;2023-03-14T00:06:37;6.13;;;2.70;;
73337;SDS011;61575;49.908;35.556;2023-03-14T00:09:38;7.10;;;3.20;;
73337;SDS011;61575;49.908;35.556;2023-03-14T00:12:42;5.82;;;2.80;;
73337;SDS011;61575;49.908;35.556;2023-03-14T00:15:45;8.38;;;3.10;;
73337;SDS011;61575;49.908;35.556;2023-03-14T00:18:50;8.30;;;3.47;;
73337;SDS011;61575;49.908;35.556;2023-03-14T00:21:52;7.07;;;2.97;;
73337;SDS011;61575;49.908;35.556;2023-03-14T00:24:53;6.50;;;3.08;;
73337;SDS011;61575;49.908;35.556;2023-03-14T00:27:55;7.43;;;3.03;;
73337;SDS011;61575;49.908;35.556;2023-03-14T00:30:57;7.82;;;3.05;;
73337;SDS011;61575;49.908;35.556;2023-03-14T00:33:59;5.45;;;2.47;;
73337;SDS011;61575;49.908;35.556;2023-03-14T00:37:01;5.70;;;2.40;;
73337;SDS011;61575;49.908;35.556;2023-03-14T00:40:03;6.13;;;2.38;;
73337;SDS011;61575;49.908;35.556;2023-03-14T00:43:08;5.57;;;2.25;;
73337;SDS011;61575;49.908;35.556;2023-03-14T00:46:09;5.78;;;2.20;;
73337;SDS011;61575;49.908;35.556;2023-03-14T00:49:13;6.55;;;2.40;;
73337;SDS011;61575;49.908;35.556;2023-03-14T00:55:17;6.72;;;2.53;;
73337;SDS011;61575;49.908;35.556;2023-03-14T00:58:18;7.45;;;2.35;;
73337;SDS011;61575;49.908;35.556;2023-03-14T01:01:20;6.60;;;2.38;;
73337;SDS011;61575;49.908;35.556;2023-03-14T01:04:22;6.85;;;2.28;;
73337;SDS011;61575;49.908;35.556;2023-03-14T01:07:24;5.05;;;2.22;;
73337;SDS011;61575;49.908;35.556;2023-03-14T01:10:28;6.95;;;2.40;;
73337;SDS011;61575;49.908;35.556;2023-03-14T01:13:32;5.70;;;2.40;;
73337;SDS011;61575;49.908;35.556;2023-03-14T01:16:36;4.55;;;2.30;;
73337;SDS011;61575;49.908;35.556;2023-03-14T01:19:38;5.47;;;2.40;;
73337;SDS011;61575;49.908;35.556;2023-03-14T01:22:40;7.25;;;2.50;;
73337;SDS011;61575;49.908;35.556;2023-03-14T01:28:45;7.07;;;2.25;;
73337;SDS011;61575;49.908;35.556;2023-03-14T01:31:49;6.63;;;2.55;;
73337;SDS011;61575;49.908;35.556;2023-03-14T01:34:51;5.65;;;2.38;;
73337;SDS011;61575;49.908;35.556;2023-03-14T01:37:55;6.28;;;2.50;;
73337;SDS011;61575;49.908;35.556;2023-03-14T01:40:57;6.45;;;2.47;;
73337;SDS011;61575;49.908;35.556;2023-03-14T01:44:00;6.55;;;2.63;;
73337;SDS011;61575;49.908;35.556;2023-03-14T01:47:02;5.15;;;2.22;;
73337;SDS011;61575;49.908;35.556;2023-03-14T01:50:06;7.80;;;2.95;;
73337;SDS011;61575;49.908;35.556;2023-03-14T01:53:13;7.57;;;2.75;;
73337;SDS011;61575;49.908;35.556;2023-03-14T01:56:16;6.05;;;2.80;;
73337;SDS011;61575;49.908;35.556;2023-03-14T01:59:20;6.32;;;2.70;;
73337;SDS011;61575;49.908;35.556;2023-03-14T02:02:23;8.73;;;3.17;;
73337;SDS011;61575;49.908;35.556;2023-03-14T02:05:28;9.40;;;3.15;;
73337;SDS011;61575;49.908;35.556;2023-03-14T02:08:36;9.98;;;3.05;;
73337;SDS011;61575;49.908;35.556;2023-03-14T02:11:47;10.15;;;3.83;;
73337;SDS011;61575;49.908;35.556;2023-03-14T02:15:08;9.20;;;3.67;;
73337;SDS011;61575;49.908;35.556;2023-03-14T02:18:34;7.65;;;3.63;;
73337;SDS011;61575;49.908;35.556;2023-03-14T02:21:57;9.38;;;3.63;;
73337;SDS011;61575;49.908;35.556;2023-03-14T02:28:58;9.07;;;3.67;;
73337;SDS011;61575;49.908;35.556;2023-03-14T02:32:00;9.60;;;3.17;;
73337;SDS011;61575;49.908;35.556;2023-03-14T02:35:05;8.40;;;3.38;;
73337;SDS011;61575;49.908;35.556;2023-03-14T02:41:39;7.13;;;3.15;;
73337;SDS011;61575;49.908;35.556;2023-03-14T02:48:16;8.95;;;3.38;;
73337;SDS011;61575;49.908;35.556;2023-03-14T02:51:22;7.80;;;3.30;;
73337;SDS011;61575;49.908;35.556;2023-03-14T02:54:25;8.85;;;3.70;;
73337;SDS011;61575;49.908;35.556;2023-03-14T02:57:27;9.10;;;3.47;;
73337;SDS011;61575;49.908;35.556;2023-03-14T03:00:30;11.98;;;4.07;;
73337;SDS011;61575;49.908;35.556;2023-03-14T03:03:32;8.82;;;3.53;;
73337;SDS011;61575;49.908;35.556;2023-03-14T03:06:35;9.18;;;3.42;;
73337;SDS011;61575;49.908;35.556;2023-03-14T03:09:37;9.75;;;3.80;;
73337;SDS011;61575;49.908;35.556;2023-03-14T03:12:39;9.43;;;4.33;;
73337;SDS011;61575;49.908;35.556;2023-03-14T03:15:41;10.05;;;4.05;;
73337;SDS011;61575;49.908;35.556;2023-03-14T03:18:44;8.90;;;4.15;;
73337;SDS011;61575;49.908;35.556;2023-03-14T03:21:45;9.27;;;3.97;;
73337;SDS011;61575;49.908;35.556;2023-03-14T03:24:48;9.40;;;3.90;;
73337;SDS011;61575;49.908;35.556;2023-03-14T03:27:52;9.98;;;4.05;;
73337;SDS011;61575;49.908;35.556;2023-03-14T03:30:55;8.90;;;3.90;;
73337;SDS011;61575;49.908;35.556;2023-03-14T03:33:57;9.07;;;3.65;;
73337;SDS011;61575;49.908;35.556;2023-03-14T03:37:02;9.35;;;3.78;;
73337;SDS011;61575;49.908;35.556;2023-03-14T03:40:09;8.07;;;4.10;;
73337;SDS011;61575;49.908;35.556;2023-03-14T03:43:12;11.18;;;3.47;;
73337;SDS011;61575;49.908;35.556;2023-03-14T03:46:17;9.73;;;4.10;;
73337;SDS011;61575;49.908;35.556;2023-03-14T03:49:19;6.90;;;3.25;;
73337;SDS011;61575;49.908;35.556;2023-03-14T03:52:21;8.15;;;3.70;;
73337;SDS011;61575;49.908;35.556;2023-03-14T03:55:26;7.45;;;3.30;;
73337;SDS011;61575;49.908;35.556;2023-03-14T03:58:31;8.77;;;3.83;;
73337;SDS011;61575;49.908;35.556;2023-03-14T04:01:33;6.85;;;3.22;;
73337;SDS011;61575;49.908;35.556;2023-03-14T04:04:36;7.53;;;3.45;;
73337;SDS011;61575;49.908;35.556;2023-03-14T04:07:39;8.98;;;3.58;;
73337;SDS011;61575;49.908;35.556;2023-03-14T04:10:44;9.57;;;3.85;;
73337;SDS011;61575;49.908;35.556;2023-03-14T04:13:51;8.63;;;3.70;;
73337;SDS011;61575;49.908;35.556;2023-03-14T04:16:53;9.32;;;3.90;;
73337;SDS011;61575;49.908;35.556;2023-03-14T04:19:55;7.60;;;3.55;;
73337;SDS011;61575;49.908;35.556;2023-03-14T04:23:08;9.73;;;4.10;;
73337;SDS011;61575;49.908;35.556;2023-03-14T04:26:10;10.07;;;4.47;;
73337;SDS011;61575;49.908;35.556;2023-03-14T04:29:12;9.73;;;4.00;;
73337;SDS011;61575;49.908;35.556;2023-03-14T04:32:16;7.93;;;3.75;;
73337;SDS011;61575;49.908;35.556;2023-03-14T04:35:19;15.07;;;5.40;;
73337;SDS011;61575;49.908;35.556;2023-03-14T04:38:22;10.18;;;4.10;;
73337;SDS011;61575;49.908;35.556;2023-03-14T04:41:25;11.82;;;4.30;;
73337;SDS011;61575;49.908;35.556;2023-03-14T04:44:27;13.13;;;4.45;;
73337;SDS011;61575;49.908;35.556;2023-03-14T04:47:29;11.10;;;4.70;;
73337;SDS011;61575;49.908;35.556;2023-03-14T04:50:34;12.25;;;4.97;;
73337;SDS011;61575;49.908;35.556;2023-03-14T04:53:36;10.53;;;4.33;;
73337;SDS011;61575;49.908;35.556;2023-03-14T04:56:43;9.95;;;4.05;;
73337;SDS011;61575;49.908;35.556;2023-03-14T04:59:45;11.50;;;4.13;;
73337;SDS011;61575;49.908;35.556;2023-03-14T05:03:06;9.80;;;4.25;;
73337;SDS011;61575;49.908;35.556;2023-03-14T05:06:31;10.68;;;4.03;;
73337;SDS011;61575;49.908;35.556;2023-03-14T05:09:53;13.10;;;4.60;;
73337;SDS011;61575;49.908;35.556;2023-03-14T05:13:24;11.38;;;3.97;;
73337;SDS011;61575;49.908;35.556;2023-03-14T05:16:51;11.68;;;4.60;;
73337;SDS011;61575;49.908;35.556;2023-03-14T05:20:11;13.35;;;4.78;;
73337;SDS011;61575;49.908;35.556;2023-03-14T05:23:43;12.25;;;5.10;;
73337;SDS011;61575;49.908;35.556;2023-03-14T05:27:04;14.02;;;4.88;;
73337;SDS011;61575;49.908;35.556;2023-03-14T05:30:29;10.15;;;4.35;;
73337;SDS011;61575;49.908;35.556;2023-03-14T05:33:55;9.73;;;4.50;;
73337;SDS011;61575;49.908;35.556;2023-03-14T05:37:23;10.10;;;4.57;;
73337;SDS011;61575;49.908;35.556;2023-03-14T05:40:48;9.02;;;4.10;;
73337;SDS011;61575;49.908;35.556;2023-03-14T05:44:09;8.90;;;3.80;;
73337;SDS011;61575;49.908;35.556;2023-03-14T05:47:28;7.97;;;3.50;;
73337;SDS011;61575;49.908;35.556;2023-03-14T05:50:40;9.00;;;3.20;;
73337;SDS011;61575;49.908;35.556;2023-03-14T05:53:54;10.88;;;3.80;;
73337;SDS011;61575;49.908;35.556;2023-03-14T05:57:07;7.10;;;3.05;;
73337;SDS011;61575;49.908;35.556;2023-03-14T06:00:22;7.55;;;3.20;;
73337;SDS011;61575;49.908;35.556;2023-03-14T06:03:36;11.70;;;3.97;;
73337;SDS011;61575;49.908;35.556;2023-03-14T06:06:39;12.80;;;5.05;;
73337;SDS011;61575;49.908;35.556;2023-03-14T06:09:44;9.57;;;3.90;;
73337;SDS011;61575;49.908;35.556;2023-03-14T06:12:46;7.93;;;3.50;;
73337;SDS011;61575;49.908;35.556;2023-03-14T06:15:50;9.45;;;3.53;;
73337;SDS011;61575;49.908;35.556;2023-03-14T06:18:52;10.13;;;4.30;;
73337;SDS011;61575;49.908;35.556;2023-03-14T06:21:56;10.23;;;3.78;;
73337;SDS011;61575;49.908;35.556;2023-03-14T06:24:59;9.63;;;4.10;;
73337;SDS011;61575;49.908;35.556;2023-03-14T06:28:02;9.88;;;3.60;;
73337;SDS011;61575;49.908;35.556;2023-03-14T06:31:05;10.23;;;4.00;;
73337;SDS011;61575;49.908;35.556;2023-03-14T06:34:15;7.30;;;3.50;;
73337;SDS011;61575;49.908;35.556;2023-03-14T06:37:17;8.88;;;3.72;;
73337;SDS011;61575;49.908;35.556;2023-03-14T06:40:22;8.73;;;3.40;;
73337;SDS011;61575;49.908;35.556;2023-03-14T06:43:30;10.45;;;3.95;;
73337;SDS011;61575;49.908;35.556;2023-03-14T06:46:32;7.57;;;3.47;;
73337;SDS011;61575;49.908;35.556;2023-03-14T06:49:35;7.13;;;3.72;;
73337;SDS011;61575;49.908;35.556;2023-03-14T06:52:37;10.03;;;4.23;;
73337;SDS011;61575;49.908;35.556;2023-03-14T06:55:43;9.02;;;3.47;;
73337;SDS011;61575;49.908;35.556;2023-03-14T06:58:45;8.23;;;3.30;;
73337;SDS011;61575;49.908;35.556;2023-03-14T07:01:52;8.43;;;3.60;;
73337;SDS011;61575;49.908;35.556;2023-03-14T07:04:54;8.18;;;3.70;;
73337;SDS011;61575;49.908;35.556;2023-03-14T07:07:56;7.43;;;3.57;;
73337;SDS011;61575;49.908;35.556;2023-03-14T07:10:58;7.22;;;3.47;;
73337;SDS011;61575;49.908;35.556;2023-03-14T07:14:03;7.70;;;3.33;;
73337;SDS011;61575;49.908;35.556;2023-03-14T07:17:05;7.93;;;3.27;;
73337;SDS011;61575;49.908;35.556;2023-03-14T07:20:07;11.77;;;4.70;;
73337;SDS011;61575;49.908;35.556;2023-03-14T07:23:11;10.02;;;3.95;;
73337;SDS011;61575;49.908;35.556;2023-03-14T07:26:25;10.18;;;4.13;;
73337;SDS011;61575;49.908;35.556;2023-03-14T07:29:27;9.63;;;4.05;;
73337;SDS011;61575;49.908;35.556;2023-03-14T07:32:30;11.18;;;3.97;;
73337;SDS011;61575;49.908;35.556;2023-03-14T07:35:35;9.32;;;4.82;;
73337;SDS011;61575;49.908;35.556;2023-03-14T07:38:42;8.48;;;4.05;;
73337;SDS011;61575;49.908;35.556;2023-03-14T07:41:54;7.53;;;3.73;;
73337;SDS011;61575;49.908;35.556;2023-03-14T07:44:59;8.30;;;3.65;;
73337;SDS011;61575;49.908;35.556;2023-03-14T07:48:01;7.68;;;3.20;;
73337;SDS011;61575;49.908;35.556;2023-03-14T07:51:03;9.93;;;3.83;;
73337;SDS011;61575;49.908;35.556;2023-03-14T07:54:05;7.60;;;3.20;;
73337;SDS011;61575;49.908;35.556;2023-03-14T07:57:07;7.40;;;3.47;;
73337;SDS011;61575;49.908;35.556;2023-03-14T08:00:09;8.32;;;3.28;;
73337;SDS011;61575;49.908;35.556;2023-03-14T08:03:16;6.28;;;3.03;;
73337;SDS011;61575;49.908;35.556;2023-03-14T08:06:18;8.75;;;3.38;;
73337;SDS011;61575;49.908;35.556;2023-03-14T08:09:20;7.78;;;3.10;;
73337;SDS011;61575;49.908;35.556;2023-03-14T08:12:22;10.50;;;3.25;;
73337;SDS011;61575;49.908;35.556;2023-03-14T08:15:24;5.93;;;3.00;;
73337;SDS011;61575;49.908;35.556;2023-03-14T08:18:26;9.00;;;3.30;;
73337;SDS011;61575;49.908;35.556;2023-03-14T08:21:28;6.75;;;3.00;;
73337;SDS011;61575;49.908;35.556;2023-03-14T08:24:32;6.22;;;3.17;;
73337;SDS011;61575;49.908;35.556;2023-03-14T08:27:34;8.00;;;3.50;;
73337;SDS011;61575;49.908;35.556;2023-03-14T08:30:38;7.43;;;3.30;;
73337;SDS011;61575;49.908;35.556;2023-03-14T08:33:41;7.97;;;3.85;;
73337;SDS011;61575;49.908;35.556;2023-03-14T08:36:42;8.65;;;3.13;;
73337;SDS011;61575;49.908;35.556;2023-03-14T08:39:47;6.60;;;3.00;;
73337;SDS011;61575;49.908;35.556;2023-03-14T08:42:49;7.63;;;2.72;;
73337;SDS011;61575;49.908;35.556;2023-03-14T08:45:51;6.03;;;2.97;;
73337;SDS011;61575;49.908;35.556;2023-03-14T08:48:53;5.82;;;3.10;;
73337;SDS011;61575;49.908;35.556;2023-03-14T08:51:55;6.97;;;2.80;;
73337;SDS011;61575;49.908;35.556;2023-03-14T08:54:57;6.25;;;2.97;;
73337;SDS011;61575;49.908;35.556;2023-03-14T08:58:00;8.32;;;3.45;;
73337;SDS011;61575;49.908;35.556;2023-03-14T09:01:01;7.65;;;3.20;;
73337;SDS011;61575;49.908;35.556;2023-03-14T09:04:06;7.80;;;3.42;;
73337;SDS011;61575;49.908;35.556;2023-03-14T09:07:08;6.03;;;3.03;;
73337;SDS011;61575;49.908;35.556;2023-03-14T09:10:10;6.83;;;3.40;;
73337;SDS011;61575;49.908;35.556;2023-03-14T09:13:12;6.95;;;2.97;;
73337;SDS011;61575;49.908;35.556;2023-03-14T09:16:14;6.13;;;3.10;;
73337;SDS011;61575;49.908;35.556;2023-03-14T09:19:19;7.20;;;3.35;;
73337;SDS011;61575;49.908;35.556;2023-03-14T09:22:22;8.32;;;3.30;;
73337;SDS011;61575;49.908;35.556;2023-03-14T09:25:24;6.03;;;3.00;;
73337;SDS011;61575;49.908;35.556;2023-03-14T09:28:26;9.23;;;4.13;;
73337;SDS011;61575;49.908;35.556;2023-03-14T09:31:28;7.82;;;3.17;;
73337;SDS011;61575;49.908;35.556;2023-03-14T09:34:31;8.32;;;3.40;;
73337;SDS011;61575;49.908;35.556;2023-03-14T09:37:37;7.88;;;3.47;;
73337;SDS011;61575;49.908;35.556;2023-03-14T09:40:39;7.67;;;3.53;;
73337;SDS011;61575;49.908;35.556;2023-03-14T09:43:41;7.35;;;3.40;;
73337;SDS011;61575;49.908;35.556;2023-03-14T09:46:46;7.55;;;3.83;;
73337;SDS011;61575;49.908;35.556;2023-03-14T09:49:51;8.55;;;4.07;;
73337;SDS011;61575;49.908;35.556;2023-03-14T09:53:01;7.15;;;3.20;;
73337;SDS011;61575;49.908;35.556;2023-03-14T09:56:11;5.43;;;3.03;;
73337;SDS011;61575;49.908;35.556;2023-03-14T09:59:18;6.35;;;3.22;;
73337;SDS011;61575;49.908;35.556;2023-03-14T10:02:21;8.38;;;3.42;;
73337;SDS011;61575;49.908;35.556;2023-03-14T10:05:25;5.82;;;3.05;;
73337;SDS011;61575;49.908;35.556;2023-03-14T10:08:31;6.57;;;3.42;;
73337;SDS011;61575;49.908;35.556;2023-03-14T10:11:33;7.73;;;3.27;;
73337;SDS011;61575;49.908;35.556;2023-03-14T10:14:36;7.30;;;3.20;;
73337;SDS011;61575;49.908;35.556;2023-03-14T10:17:42;8.73;;;3.97;;
73337;SDS011;61575;49.908;35.556;2023-03-14T10:20:48;7.93;;;3.53;;
73337;SDS011;61575;49.908;35.556;2023-03-14T10:27:21;7.65;;;3.33;;
73337;SDS011;61575;49.908;35.556;2023-03-14T10:33:39;12.40;;;4.78;;
73337;SDS011;61575;49.908;35.556;2023-03-14T10:36:45;8.75;;;3.70;;
73337;SDS011;61575;49.908;35.556;2023-03-14T10:39:47;7.50;;;3.60;;
73337;SDS011;61575;49.908;35.556;2023-03-14T10:42:51;6.55;;;3.65;;
73337;SDS011;61575;49.908;35.556;2023-03-14T10:46:08;7.15;;;3.80;;
73337;SDS011;61575;49.908;35.556;2023-03-14T10:49:35;8.20;;;4.35;;
73337;SDS011;61575;49.908;35.556;2023-03-14T10:52:38;7.30;;;3.95;;
73337;SDS011;61575;49.908;35.556;2023-03-14T10:56:03;8.02;;;4.10;;
73337;SDS011;61575;49.908;35.556;2023-03-14T10:59:12;7.93;;;3.88;;
73337;SDS011;61575;49.908;35.556;2023-03-14T11:02:40;9.45;;;4.18;;
73337;SDS011;61575;49.908;35.556;2023-03-14T11:09:16;7.40;;;4.07;;
73337;SDS011;61575;49.908;35.556;2023-03-14T11:22:44;7.10;;;3.97;;
73337;SDS011;61575;49.908;35.556;2023-03-14T11:26:05;8.40;;;4.55;;
73337;SDS011;61575;49.908;35.556;2023-03-14T11:33:17;8.55;;;4.13;;
73337;SDS011;61575;49.908;35.556;2023-03-14T11:36:31;8.15;;;3.65;;
73337;SDS011;61575;49.908;35.556;2023-03-14T11:39:45;7.72;;;4.40;;
73337;SDS011;61575;49.908;35.556;2023-03-14T11:42:59;7.95;;;3.90;;
73337;SDS011;61575;49.908;35.556;2023-03-14T11:46:05;6.97;;;3.92;;
73337;SDS011;61575;49.908;35.556;2023-03-14T11:52:34;8.43;;;4.40;;
73337;SDS011;61575;49.908;35.556;2023-03-14T11:55:39;9.23;;;4.25;;
73337;SDS011;61575;49.908;35.556;2023-03-14T11:58:47;10.65;;;5.30;;
73337;SDS011;61575;49.908;35.556;2023-03-14T12:02:13;12.60;;;6.80;;
73337;SDS011;61575;49.908;35.556;2023-03-14T12:09:10;11.43;;;5.00;;
73337;SDS011;61575;49.908;35.556;2023-03-14T12:12:15;9.60;;;4.65;;
73337;SDS011;61575;49.908;35.556;2023-03-14T12:15:23;7.53;;;3.90;;
73337;SDS011;61575;49.908;35.556;2023-03-14T12:21:47;8.40;;;3.92;;
73337;SDS011;61575;49.908;35.556;2023-03-14T12:25:34;9.23;;;3.75;;
73337;SDS011;61575;49.908;35.556;2023-03-14T12:28:20;9.05;;;4.72;;
73337;SDS011;61575;49.908;35.556;2023-03-14T12:31:36;10.55;;;4.25;;
73337;SDS011;61575;49.908;35.556;2023-03-14T12:34:53;7.28;;;3.50;;
73337;SDS011;61575;49.908;35.556;2023-03-14T12:37:55;8.90;;;3.80;;
73337;SDS011;61575;49.908;35.556;2023-03-14T12:50:35;7.40;;;3.88;;
73337;SDS011;61575;49.908;35.556;2023-03-14T13:00:20;9.43;;;4.68;;
73337;SDS011;61575;49.908;35.556;2023-03-14T13:03:25;9.82;;;5.50;;
73337;SDS011;61575;49.908;35.556;2023-03-14T13:06:51;8.00;;;4.63;;
73337;SDS011;61575;49.908;35.556;2023-03-14T13:16:24;9.10;;;4.97;;
73337;SDS011;61575;49.908;35.556;2023-03-14T13:19:27;11.40;;;4.45;;
73337;SDS011;61575;49.908;35.556;2023-03-14T13:22:33;8.15;;;4.18;;
73337;SDS011;61575;49.908;35.556;2023-03-14T13:25:36;7.50;;;4.10;;
73337;SDS011;61575;49.908;35.556;2023-03-14T13:28:38;8.75;;;4.55;;
73337;SDS011;61575;49.908;35.556;2023-03-14T13:31:43;9.68;;;4.55;;
73337;SDS011;61575;49.908;35.556;2023-03-14T13:34:49;9.63;;;4.88;;
73337;SDS011;61575;49.908;35.556;2023-03-14T13:37:58;8.18;;;4.28;;
73337;SDS011;61575;49.908;35.556;2023-03-14T13:41:12;7.00;;;4.30;;
73337;SDS011;61575;49.908;35.556;2023-03-14T13:44:21;10.48;;;5.13;;
73337;SDS011;61575;49.908;35.556;2023-03-14T13:47:27;9.73;;;4.57;;
73337;SDS011;61575;49.908;35.556;2023-03-14T13:50:29;9.15;;;4.75;;
73337;SDS011;61575;49.908;35.556;2023-03-14T13:53:41;8.88;;;4.68;;
73337;SDS011;61575;49.908;35.556;2023-03-14T13:56:49;8.80;;;4.38;;
73337;SDS011;61575;49.908;35.556;2023-03-14T14:00:04;8.82;;;4.90;;
73337;SDS011;61575;49.908;35.556;2023-03-14T14:03:13;8.93;;;4.40;;
73337;SDS011;61575;49.908;35.556;2023-03-14T14:09:26;9.75;;;4.30;;
73337;SDS011;61575;49.908;35.556;2023-03-14T14:12:32;7.53;;;3.80;;
73337;SDS011;61575;49.908;35.556;2023-03-14T14:15:41;8.90;;;3.97;;
73337;SDS011;61575;49.908;35.556;2023-03-14T14:18:45;8.52;;;4.43;;
73337;SDS011;61575;49.908;35.556;2023-03-14T14:21:47;8.27;;;3.60;;
73337;SDS011;61575;49.908;35.556;2023-03-14T14:24:50;8.48;;;3.97;;
73337;SDS011;61575;49.908;35.556;2023-03-14T14:27:53;7.15;;;3.55;;
73337;SDS011;61575;49.908;35.556;2023-03-14T14:34:18;7.80;;;3.60;;
73337;SDS011;61575;49.908;35.556;2023-03-14T14:40:28;22.58;;;13.13;;
73337;SDS011;61575;49.908;35.556;2023-03-14T14:43:36;9.95;;;4.75;;
73337;SDS011;61575;49.908;35.556;2023-03-14T14:46:42;8.40;;;4.40;;
73337;SDS011;61575;49.908;35.556;2023-03-14T14:49:44;9.47;;;5.73;;
73337;SDS011;61575;49.908;35.556;2023-03-14T14:52:49;18.67;;;13.35;;
73337;SDS011;61575;49.908;35.556;2023-03-14T14:55:52;9.57;;;4.72;;
73337;SDS011;61575;49.908;35.556;2023-03-14T14:58:59;10.02;;;6.40;;
73337;SDS011;61575;49.908;35.556;2023-03-14T15:02:03;10.48;;;7.68;;
73337;SDS011;61575;49.908;35.556;2023-03-14T15:05:11;9.48;;;4.90;;
73337;SDS011;61575;49.908;35.556;2023-03-14T15:08:18;15.13;;;11.13;;
73337;SDS011;61575;49.908;35.556;2023-03-14T15:11:21;15.57;;;12.48;;
73337;SDS011;61575;49.908;35.556;2023-03-14T15:14:24;10.18;;;4.93;;
73337;SDS011;61575;49.908;35.556;2023-03-14T15:17:26;10.87;;;6.47;;
73337;SDS011;61575;49.908;35.556;2023-03-14T15:20:28;22.73;;;14.98;;
73337;SDS011;61575;49.908;35.556;2023-03-14T15:23:32;62.85;;;47.22;;
73337;SDS011;61575;49.908;35.556;2023-03-14T15:26:33;59.33;;;26.17;;
73337;SDS011;61575;49.908;35.556;2023-03-14T15:29:35;49.78;;;28.52;;
73337;SDS011;61575;49.908;35.556;2023-03-14T15:32:38;12.27;;;8.70;;
73337;SDS011;61575;49.908;35.556;2023-03-14T15:35:41;81.70;;;41.10;;
73337;SDS011;61575;49.908;35.556;2023-03-14T15:38:43;85.70;;;38.90;;
73337;SDS011;61575;49.908;35.556;2023-03-14T15:41:47;11.07;;;6.35;;
73337;SDS011;61575;49.908;35.556;2023-03-14T15:44:50;15.55;;;10.18;;
73337;SDS011;61575;49.908;35.556;2023-03-14T15:47:56;101.57;;;45.83;;
73337;SDS011;61575;49.908;35.556;2023-03-14T15:51:01;23.45;;;12.27;;
73337;SDS011;61575;49.908;35.556;2023-03-14T15:54:05;16.48;;;8.95;;
73337;SDS011;61575;49.908;35.556;2023-03-14T15:57:09;116.00;;;40.20;;
73337;SDS011;61575;49.908;35.556;2023-03-14T16:00:13;464.48;;;140.57;;
73337;SDS011;61575;49.908;35.556;2023-03-14T16:03:18;343.48;;;100.45;;
73337;SDS011;61575;49.908;35.556;2023-03-14T16:06:20;357.65;;;105.72;;
73337;SDS011;61575;49.908;35.556;2023-03-14T16:09:22;229.90;;;64.67;;
73337;SDS011;61575;49.908;35.556;2023-03-14T16:12:26;500.48;;;149.55;;
73337;SDS011;61575;49.908;35.556;2023-03-14T16:15:30;386.45;;;106.65;;
73337;SDS011;61575;49.908;35.556;2023-03-14T16:18:33;254.18;;;62.55;;
73337;SDS011;61575;49.908;35.556;2023-03-14T16:21:36;282.10;;;75.45;;
73337;SDS011;61575;49.908;35.556;2023-03-14T16:24:39;301.10;;;76.43;;
73337;SDS011;61575;49.908;35.556;2023-03-14T16:27:41;333.73;;;89.57;;
73337;SDS011;61575;49.908;35.556;2023-03-14T16:30:45;60.25;;;17.27;;
73337;SDS011;61575;49.908;35.556;2023-03-14T16:33:48;278.42;;;71.60;;
73337;SDS011;61575;49.908;35.556;2023-03-14T16:36:54;49.33;;;15.95;;
73337;SDS011;61575;49.908;35.556;2023-03-14T16:39:57;79.50;;;23.52;;
73337;SDS011;61575;49.908;35.556;2023-03-14T16:43:14;149.32;;;40.42;;
73337;SDS011;61575;49.908;35.556;2023-03-14T16:46:17;129.77;;;35.25;;
73337;SDS011;61575;49.908;35.556;2023-03-14T16:49:23;314.90;;;74.63;;
73337;SDS011;61575;49.908;35.556;2023-03-14T16:52:25;58.17;;;16.90;;
73337;SDS011;61575;49.908;35.556;2023-03-14T16:55:27;357.37;;;91.13;;
73337;SDS011;61575;49.908;35.556;2023-03-14T16:58:29;108.78;;;31.15;;
73337;SDS011;61575;49.908;35.556;2023-03-14T17:04:38;74.85;;;21.92;;
73337;SDS011;61575;49.908;35.556;2023-03-14T17:07:42;92.63;;;30.38;;
73337;SDS011;61575;49.908;35.556;2023-03-14T17:13:46;365.75;;;81.15;;
73337;SDS011;61575;49.908;35.556;2023-03-14T17:16:48;298.13;;;73.43;;
73337;SDS011;61575;49.908;35.556;2023-03-14T17:19:51;93.45;;;27.77;;
73337;SDS011;61575;49.908;35.556;2023-03-14T17:22:53;95.10;;;28.30;;
73337;SDS011;61575;49.908;35.556;2023-03-14T17:25:55;35.80;;;12.45;;
73337;SDS011;61575;49.908;35.556;2023-03-14T17:28:57;40.05;;;15.48;;
73337;SDS011;61575;49.908;35.556;2023-03-14T17:32:01;55.55;;;20.77;;
73337;SDS011;61575;49.908;35.556;2023-03-14T17:35:03;26.67;;;10.40;;
73337;SDS011;61575;49.908;35.556;2023-03-14T17:38:05;63.17;;;23.83;;
73337;SDS011;61575;49.908;35.556;2023-03-14T17:41:11;58.30;;;22.20;;
73337;SDS011;61575;49.908;35.556;2023-03-14T17:44:19;60.15;;;23.50;;
73337;SDS011;61575;49.908;35.556;2023-03-14T17:47:21;74.55;;;28.40;;
73337;SDS011;61575;49.908;35.556;2023-03-14T17:50:23;16.83;;;7.93;;
73337;SDS011;61575;49.908;35.556;2023-03-14T17:53:24;27.30;;;11.60;;
73337;SDS011;61575;49.908;35.556;2023-03-14T17:56:26;20.88;;;9.35;;
73337;SDS011;61575;49.908;35.556;2023-03-14T17:59:28;73.13;;;28.58;;
73337;SDS011;61575;49.908;35.556;2023-03-14T18:02:30;48.15;;;19.27;;
73337;SDS011;61575;49.908;35.556;2023-03-14T18:05:32;53.92;;;22.75;;
73337;SDS011;61575;49.908;35.556;2023-03-14T18:08:38;36.80;;;15.77;;
73337;SDS011;61575;49.908;35.556;2023-03-14T18:11:44;24.33;;;11.40;;
73337;SDS011;61575;49.908;35.556;2023-03-14T18:14:47;17.77;;;7.65;;
73337;SDS011;61575;49.908;35.556;2023-03-14T18:17:49;36.03;;;16.40;;
73337;SDS011;61575;49.908;35.556;2023-03-14T18:20:51;64.97;;;26.37;;
73337;SDS011;61575;49.908;35.556;2023-03-14T18:23:54;24.55;;;11.43;;
73337;SDS011;61575;49.908;35.556;2023-03-14T18:29:59;18.50;;;8.73;;
73337;SDS011;61575;49.908;35.556;2023-03-14T18:33:01;33.50;;;13.95;;
73337;SDS011;61575;49.908;35.556;2023-03-14T18:36:07;18.38;;;8.50;;
73337;SDS011;61575;49.908;35.556;2023-03-14T18:39:13;34.28;;;15.40;;
73337;SDS011;61575;49.908;35.556;2023-03-14T18:42:15;37.33;;;17.83;;
73337;SDS011;61575;49.908;35.556;2023-03-14T18:45:17;26.88;;;12.85;;
73337;SDS011;61575;49.908;35.556;2023-03-14T18:48:19;53.63;;;25.08;;
73337;SDS011;61575;49.908;35.556;2023-03-14T18:51:22;25.10;;;12.20;;
73337;SDS011;61575;49.908;35.556;2023-03-14T18:54:26;28.70;;;14.30;;
73337;SDS011;61575;49.908;35.556;2023-03-14T18:57:28;35.90;;;15.93;;
73337;SDS011;61575;49.908;35.556;2023-03-14T19:00:32;12.55;;;5.80;;
73337;SDS011;61575;49.908;35.556;2023-03-14T19:03:35;17.45;;;8.52;;
73337;SDS011;61575;49.908;35.556;2023-03-14T19:06:39;17.70;;;9.00;;
73337;SDS011;61575;49.908;35.556;2023-03-14T19:12:45;22.33;;;10.57;;
73337;SDS011;61575;49.908;35.556;2023-03-14T19:15:47;87.88;;;38.33;;
73337;SDS011;61575;49.908;35.556;2023-03-14T19:18:52;27.20;;;12.07;;
73337;SDS011;61575;49.908;35.556;2023-03-14T19:21:58;66.13;;;27.42;;
73337;SDS011;61575;49.908;35.556;2023-03-14T19:25:01;13.32;;;6.57;;
73337;SDS011;61575;49.908;35.556;2023-03-14T19:28:04;19.90;;;10.13;;
73337;SDS011;61575;49.908;35.556;2023-03-14T19:31:06;12.65;;;7.18;;
73337;SDS011;61575;49.908;35.556;2023-03-14T19:34:08;12.82;;;5.35;;
73337;SDS011;61575;49.908;35.556;2023-03-14T19:37:12;54.63;;;22.80;;
73337;SDS011;61575;49.908;35.556;2023-03-14T19:40:15;29.83;;;13.73;;
73337;SDS011;61575;49.908;35.556;2023-03-14T19:43:17;16.23;;;8.00;;
73337;SDS011;61575;49.908;35.556;2023-03-14T19:46:19;15.52;;;7.25;;